createdAt,value
2019-04-23T00:00:37.781Z,99.90
2019-04-23T00:01:16.543Z,99.90
2019-04-23T00:02:05.334Z,99.90
2019-04-23T00:03:06.941Z,99.90
2019-04-23T00:03:35.731Z,99.90
2019-04-23T00:04:05.707Z,99.90
2019-04-23T00:04:45.561Z,99.90
2019-04-23T00:05:29.077Z,99.90
2019-04-23T00:05:59.473Z,99.90
2019-04-23T00:06:42.932Z,99.90
2019-04-23T00:07:22.651Z,99.90
2019-04-23T00:07:51.947Z,99.90
2019-04-23T00:08:29.153Z,99.90
2019-04-23T00:08:58.052Z,99.90
2019-04-23T00:09:32.895Z,99.90
2019-04-23T00:10:12.098Z,99.90
2019-04-23T00:10:45.913Z,99.90
2019-04-23T00:11:19.428Z,99.90
2019-04-23T00:11:54.267Z,99.90
2019-04-23T00:13:05.751Z,99.90
2019-04-23T00:15:04.866Z,99.90
2019-04-23T00:15:58.619Z,99.90
2019-04-23T00:16:35.971Z,99.90
2019-04-23T00:17:04.574Z,99.90
2019-04-23T00:17:43.758Z,99.90
2019-04-23T00:18:22.744Z,99.90
2019-04-23T00:19:03.188Z,99.90
2019-04-23T00:19:30.980Z,99.90
2019-04-23T00:20:09.582Z,99.90
2019-04-23T00:20:44.259Z,99.90
2019-04-23T00:22:26.521Z,99.90
2019-04-23T00:23:11.528Z,99.90
2019-04-23T00:23:53.340Z,99.90
2019-04-23T00:25:45.619Z,99.90
2019-04-23T00:26:22.180Z,99.90
2019-04-23T00:26:50.459Z,99.90
2019-04-23T00:27:29.273Z,99.90
2019-04-23T00:28:06.575Z,99.90
2019-04-23T00:29:21.161Z,99.90
2019-04-23T00:29:53.800Z,99.90
2019-04-23T00:30:32.085Z,99.90
2019-04-23T00:31:11.870Z,99.90
2019-04-23T00:31:36.234Z,99.90
2019-04-23T00:32:15.668Z,99.90
2019-04-23T00:32:46.935Z,99.90
2019-04-23T00:33:25.719Z,99.90
2019-04-23T00:34:06.339Z,99.90
2019-04-23T00:34:44.466Z,99.90
2019-04-23T00:35:12.354Z,99.90
2019-04-23T00:35:44.097Z,99.90
2019-04-23T00:36:42.262Z,99.90
2019-04-23T00:37:01.565Z,99.90
2019-04-23T00:37:36.912Z,99.90
2019-04-23T00:38:47.338Z,99.90
2019-04-23T00:39:23.668Z,99.90
2019-04-23T00:39:56.620Z,99.90
2019-04-23T00:40:41.775Z,99.90
2019-04-23T00:41:13.929Z,99.90
2019-04-23T00:42:10.374Z,99.90
2019-04-23T00:42:31.282Z,99.90
2019-04-23T00:43:03.447Z,99.90
2019-04-23T00:43:40.992Z,99.90
2019-04-23T00:44:15.060Z,99.90
2019-04-23T00:45:24.610Z,99.90
2019-04-23T00:45:55.098Z,99.90
2019-04-23T00:46:34.951Z,99.90
2019-04-23T00:47:10.326Z,99.90
2019-04-23T00:49:05.843Z,99.90
2019-04-23T00:49:39.913Z,99.90
2019-04-23T00:50:54.261Z,99.90
2019-04-23T00:51:34.675Z,99.90
2019-04-23T00:52:07.527Z,1.00
2019-04-23T00:52:40.749Z,1.00
2019-04-23T00:53:51.309Z,1.00
2019-04-23T00:54:27.380Z,1.00
2019-04-23T00:55:44.435Z,1.00
2019-04-23T00:56:32.107Z,1.00
2019-04-23T00:56:55.332Z,1.00
2019-04-23T00:57:34.371Z,1.00
2019-04-23T00:58:08.614Z,1.00
2019-04-23T00:58:41.262Z,1.00
2019-04-23T00:59:12.565Z,1.00
2019-04-23T01:00:02.046Z,1.00
2019-04-23T01:00:33.641Z,1.00
2019-04-23T01:01:04.417Z,1.00
2019-04-23T01:02:39.676Z,1.00
2019-04-23T01:03:12.577Z,1.00
2019-04-23T01:03:50.165Z,1.00
2019-04-23T01:04:29.518Z,1.00
2019-04-23T01:05:04.807Z,1.00
2019-04-23T01:05:39.239Z,1.00
2019-04-23T01:06:15.991Z,1.00
2019-04-23T01:06:53.834Z,1.00
2019-04-23T01:07:29.722Z,1.00
2019-04-23T01:08:01.869Z,1.00
2019-04-23T01:08:52.217Z,1.00
2019-04-23T01:09:11.219Z,1.00
2019-04-23T01:09:52.525Z,1.00
2019-04-23T01:10:34.561Z,1.00
2019-04-23T01:11:16.695Z,1.00
2019-04-23T01:11:48.129Z,1.00
2019-04-23T01:12:31.441Z,1.00
2019-04-23T01:14:13.234Z,1.00
2019-04-23T01:14:49.424Z,1.00
2019-04-23T01:15:33.994Z,1.00
2019-04-23T01:16:05.752Z,1.00
2019-04-23T01:16:37.948Z,1.00
2019-04-23T01:17:26.426Z,1.00
2019-04-23T01:18:02.298Z,1.00
2019-04-23T01:18:46.829Z,1.00
2019-04-23T01:20:08.454Z,1.00
2019-04-23T01:20:55.124Z,1.00
2019-04-23T01:21:11.697Z,1.00
2019-04-23T01:21:49.433Z,1.00
2019-04-23T01:22:27.433Z,1.00
2019-04-23T01:23:20.639Z,1.00
2019-04-23T01:24:17.258Z,10.30
2019-04-23T01:25:07.353Z,99.90
2019-04-23T01:25:47.430Z,99.90
2019-04-23T01:26:31.329Z,99.90
2019-04-23T01:27:52.754Z,99.90
2019-04-23T01:28:22.838Z,99.90
2019-04-23T01:28:55.900Z,99.90
2019-04-23T01:29:38.860Z,99.90
2019-04-23T01:30:09.536Z,99.90
2019-04-23T01:30:52.083Z,99.90
2019-04-23T01:31:20.205Z,99.90
2019-04-23T01:32:02.919Z,99.90
2019-04-23T01:32:35.037Z,99.90
2019-04-23T01:33:10.520Z,1.00
2019-04-23T01:33:46.708Z,99.90
2019-04-23T01:34:26.072Z,99.90
2019-04-23T01:35:07.293Z,99.90
2019-04-23T01:35:25.490Z,99.90
2019-04-23T01:36:42.962Z,1.00
2019-04-23T01:37:24.067Z,1.00
2019-04-23T01:37:51.565Z,1.00
2019-04-23T01:39:11.661Z,1.00
2019-04-23T01:39:50.953Z,1.00
2019-04-23T01:40:28.896Z,1.00
2019-04-23T01:40:53.721Z,1.00
2019-04-23T01:41:33.594Z,1.00
2019-04-23T01:42:19.579Z,1.00
2019-04-23T01:42:44.244Z,1.00
2019-04-23T01:43:23.207Z,1.00
2019-04-23T01:43:50.371Z,1.00
2019-04-23T01:44:38.560Z,1.00
2019-04-23T01:45:13.304Z,1.00
2019-04-23T01:45:35.577Z,1.00
2019-04-23T01:46:25.403Z,1.00
2019-04-23T01:47:00.779Z,1.00
2019-04-23T01:47:39.301Z,1.00
2019-04-23T01:48:05.937Z,1.00
2019-04-23T01:48:47.100Z,99.90
2019-04-23T01:49:21.898Z,1.00
2019-04-23T01:50:01.871Z,1.00
2019-04-23T01:50:43.772Z,99.90
2019-04-23T01:51:08.173Z,99.80
2019-04-23T01:51:54.535Z,91.60
2019-04-23T01:52:31.964Z,99.90
2019-04-23T01:53:08.101Z,99.90
2019-04-23T01:53:41.697Z,99.90
2019-04-23T01:54:09.433Z,99.90
2019-04-23T01:54:52.857Z,99.90
2019-04-23T01:55:31.544Z,99.90
2019-04-23T01:56:20.347Z,99.90
2019-04-23T01:56:33.716Z,99.90
2019-04-23T01:57:16.753Z,99.90
2019-04-23T01:57:56.330Z,99.90
2019-04-23T01:59:07.883Z,1.00
2019-04-23T01:59:39.284Z,1.00
2019-04-23T02:00:22.761Z,1.00
2019-04-23T02:00:53.135Z,1.00
2019-04-23T02:01:46.243Z,1.00
2019-04-23T02:02:05.131Z,1.00
2019-04-23T02:02:44.236Z,1.00
2019-04-23T02:03:15.208Z,1.00
2019-04-23T02:03:58.300Z,1.00
2019-04-23T02:04:28.666Z,1.00
2019-04-23T02:05:09.893Z,1.00
2019-04-23T02:05:41.534Z,11.30
2019-04-23T02:06:14.775Z,99.90
2019-04-23T02:06:55.924Z,1.00
2019-04-23T02:08:03.972Z,9.80
2019-04-23T02:08:45.266Z,21.10
2019-04-23T02:09:17.119Z,91.40
2019-04-23T02:09:58.645Z,1.00
2019-04-23T02:10:56.710Z,99.90
2019-04-23T02:11:37.740Z,99.90
2019-04-23T02:12:19.998Z,99.90
2019-04-23T02:12:56.950Z,99.90
2019-04-23T02:13:32.332Z,99.90
2019-04-23T02:14:43.328Z,32.60
2019-04-23T02:15:16.873Z,99.90
2019-04-23T02:15:51.754Z,99.90
2019-04-23T02:16:33.889Z,99.90
2019-04-23T02:17:01.211Z,99.90
2019-04-23T02:17:50.100Z,99.90
2019-04-23T02:18:17.878Z,99.90
2019-04-23T02:19:09.749Z,99.90
2019-04-23T02:19:34.284Z,99.90
2019-04-23T02:20:14.716Z,99.90
2019-04-23T02:20:46.135Z,99.90
2019-04-23T02:21:43.548Z,1.00
2019-04-23T02:22:10.266Z,99.90
2019-04-23T02:23:11.399Z,99.90
2019-04-23T02:23:39.655Z,99.90
2019-04-23T02:24:18.292Z,99.90
2019-04-23T02:25:15.784Z,1.00
2019-04-23T02:26:57.574Z,1.00
2019-04-23T02:27:42.638Z,1.00
2019-04-23T02:28:19.029Z,1.00
2019-04-23T02:29:41.564Z,1.00
2019-04-23T02:32:31.858Z,99.90
2019-04-23T02:33:46.100Z,99.90
2019-04-23T02:34:30.996Z,1.00
2019-04-23T02:35:42.751Z,1.00
2019-04-23T02:36:11.010Z,1.00
2019-04-23T02:36:48.834Z,1.00
2019-04-23T02:37:22.118Z,1.00
2019-04-23T02:38:00.302Z,1.00
2019-04-23T02:38:42.918Z,30.50
2019-04-23T02:39:21.823Z,1.00
2019-04-23T02:39:51.306Z,99.90
2019-04-23T02:40:30.684Z,1.00
2019-04-23T02:42:25.244Z,99.90
2019-04-23T02:43:01.768Z,1.00
2019-04-23T02:43:16.705Z,99.90
2019-04-23T02:44:09.110Z,1.00
2019-04-23T02:44:27.527Z,1.00
2019-04-23T02:46:02.488Z,1.00
2019-04-23T02:46:09.091Z,1.00
2019-04-23T02:47:32.607Z,99.90
2019-04-23T02:48:54.379Z,1.00
2019-04-23T02:50:12.045Z,1.00
2019-04-23T02:51:04.861Z,99.90
2019-04-23T02:51:51.014Z,31.70
2019-04-23T02:52:26.385Z,99.90
2019-04-23T02:53:02.565Z,1.00
2019-04-23T02:53:53.488Z,99.90
2019-04-23T02:54:17.826Z,99.90
2019-04-23T02:55:29.330Z,99.90
2019-04-23T02:56:05.743Z,1.00
2019-04-23T02:56:42.742Z,99.90
2019-04-23T02:57:09.378Z,1.00
2019-04-23T02:57:41.594Z,1.00
2019-04-23T02:58:28.167Z,1.00
2019-04-23T02:59:02.377Z,1.00
2019-04-23T03:00:07.862Z,25.40
2019-04-23T03:00:55.553Z,99.90
2019-04-23T03:01:39.720Z,99.90
2019-04-23T03:03:01.252Z,99.90
2019-04-23T03:03:38.923Z,1.00
2019-04-23T03:04:10.354Z,1.00
2019-04-23T03:04:45.121Z,1.00
2019-04-23T03:05:40.292Z,1.00
2019-04-23T03:05:57.352Z,1.00
2019-04-23T03:06:27.107Z,1.00
2019-04-23T03:08:24.507Z,99.90
2019-04-23T03:09:36.679Z,99.90
2019-04-23T03:10:08.117Z,99.90
2019-04-23T03:12:08.266Z,1.00
2019-04-23T03:12:41.495Z,1.00
2019-04-23T03:13:19.374Z,1.00
2019-04-23T03:14:25.023Z,1.00
2019-04-23T03:15:24.164Z,1.00
2019-04-23T03:17:31.008Z,1.00
2019-04-23T03:20:01.512Z,1.00
2019-04-23T03:21:01.784Z,1.00
2019-04-23T03:21:31.446Z,1.00
2019-04-23T03:22:06.069Z,1.00
2019-04-23T03:23:20.337Z,1.00
2019-04-23T03:24:40.487Z,1.00
2019-04-23T03:25:10.294Z,1.00
2019-04-23T03:25:49.672Z,1.00
2019-04-23T03:26:37.021Z,1.00
2019-04-23T03:27:37.581Z,1.00
2019-04-23T03:28:25.163Z,1.00
2019-04-23T03:29:31.722Z,1.00
2019-04-23T03:30:13.457Z,1.00
2019-04-23T03:31:57.885Z,1.00
2019-04-23T03:35:16.210Z,1.00
2019-04-23T03:38:00.765Z,1.00
2019-04-23T03:38:56.018Z,1.00
2019-04-23T03:40:13.296Z,1.00
2019-04-23T03:40:37.325Z,1.00
2019-04-23T03:41:44.028Z,1.00
2019-04-23T03:43:29.598Z,1.00
2019-04-23T03:44:06.683Z,1.00
2019-04-23T03:44:40.170Z,1.00
2019-04-23T03:45:22.297Z,1.00
2019-04-23T03:46:55.323Z,1.00
2019-04-23T03:47:34.888Z,1.00
2019-04-23T03:48:20.031Z,1.00
2019-04-23T03:48:47.269Z,1.00
2019-04-23T03:49:13.531Z,1.00
2019-04-23T03:50:09.228Z,1.00
2019-04-23T03:50:39.568Z,1.00
2019-04-23T03:51:06.863Z,1.00
2019-04-23T03:52:03.215Z,1.00
2019-04-23T03:53:22.598Z,16.90
2019-04-23T03:55:01.213Z,99.90
2019-04-23T03:55:30.208Z,99.90
2019-04-23T03:56:44.871Z,99.90
2019-04-23T03:57:45.021Z,73.10
2019-04-23T03:58:44.811Z,99.90
2019-04-23T04:00:15.728Z,99.90
2019-04-23T04:00:54.098Z,99.90
2019-04-23T04:03:24.134Z,99.90
2019-04-23T04:04:14.826Z,99.90
2019-04-23T04:04:33.320Z,38.40
2019-04-23T04:04:49.843Z,56.90
2019-04-23T04:05:36.085Z,86.30
2019-04-23T04:06:13.767Z,33.60
2019-04-23T04:06:50.163Z,99.90
2019-04-23T04:07:31.953Z,99.90
2019-04-23T04:08:25.744Z,40.60
2019-04-23T04:10:16.040Z,99.90
2019-04-23T04:11:07.814Z,1.00
2019-04-23T04:11:25.480Z,1.00
2019-04-23T04:12:19.100Z,99.90
2019-04-23T04:12:39.328Z,99.90
2019-04-23T04:14:10.274Z,99.90
2019-04-23T04:15:18.313Z,99.90
2019-04-23T04:15:55.344Z,99.90
2019-04-23T04:16:18.925Z,1.00
2019-04-23T04:17:01.329Z,99.90
2019-04-23T04:17:26.761Z,24.50
2019-04-23T04:18:28.505Z,99.90
2019-04-23T04:18:44.380Z,99.90
2019-04-23T04:19:32.521Z,1.00
2019-04-23T04:19:56.578Z,1.00
2019-04-23T04:21:51.989Z,99.90
2019-04-23T04:22:29.361Z,27.40
2019-04-23T04:23:33.921Z,1.00
2019-04-23T04:24:22.351Z,1.00
2019-04-23T04:25:02.434Z,1.00
2019-04-23T04:25:30.731Z,17.40
2019-04-23T04:25:56.615Z,1.00
2019-04-23T04:27:24.504Z,1.00
2019-04-23T04:27:53.887Z,1.00
2019-04-23T04:28:28.900Z,1.00
2019-04-23T04:29:10.807Z,1.00
2019-04-23T04:29:39.680Z,99.90
2019-04-23T04:30:54.523Z,69.30
2019-04-23T04:31:20.936Z,1.00
2019-04-23T04:32:00.487Z,1.00
2019-04-23T04:32:33.453Z,1.00
2019-04-23T04:36:07.924Z,1.00
2019-04-23T04:38:36.314Z,1.00
2019-04-23T04:38:58.970Z,1.00
2019-04-23T04:39:35.916Z,1.00
2019-04-23T04:40:10.855Z,1.00
2019-04-23T04:40:42.192Z,1.00
2019-04-23T04:42:27.558Z,99.90
2019-04-23T04:43:13.211Z,1.00
2019-04-23T04:45:42.351Z,1.00
2019-04-23T04:46:47.830Z,99.90
2019-04-23T04:47:21.514Z,99.90
2019-04-23T04:47:49.338Z,78.40
2019-04-23T04:48:35.387Z,1.00
2019-04-23T04:49:05.532Z,99.90
2019-04-23T04:49:51.727Z,1.00
2019-04-23T04:50:35.015Z,99.90
2019-04-23T04:51:00.239Z,1.00
2019-04-23T04:51:44.289Z,1.00
2019-04-23T04:52:34.605Z,89.80
2019-04-23T04:53:37.966Z,1.00
2019-04-23T04:54:02.632Z,99.90
2019-04-23T04:54:21.994Z,1.00
2019-04-23T04:55:03.206Z,99.90
2019-04-23T04:56:28.047Z,1.00
2019-04-23T04:57:04.583Z,99.90
2019-04-23T04:57:37.262Z,99.90
2019-04-23T04:58:07.158Z,1.00
2019-04-23T04:58:49.669Z,1.00
2019-04-23T04:59:18.165Z,99.90
2019-04-23T05:00:08.314Z,1.00
2019-04-23T05:01:36.792Z,99.90
2019-04-23T05:02:26.427Z,99.90
2019-04-23T05:04:16.517Z,85.50
2019-04-23T05:04:52.374Z,1.00
2019-04-23T05:06:18.559Z,99.90
2019-04-23T05:06:37.978Z,1.00
2019-04-23T05:07:09.084Z,1.00
2019-04-23T05:08:21.695Z,1.00
2019-04-23T05:11:28.817Z,99.90
2019-04-23T05:12:32.490Z,99.90
2019-04-23T05:13:22.722Z,99.90
2019-04-23T05:14:30.815Z,1.00
2019-04-23T05:15:28.503Z,1.00
2019-04-23T05:16:08.038Z,99.90
2019-04-23T05:16:47.373Z,1.00
2019-04-23T05:18:28.798Z,1.00
2019-04-23T05:19:25.122Z,1.00
2019-04-23T05:19:51.295Z,99.90
2019-04-23T05:20:28.509Z,99.90
2019-04-23T05:22:16.062Z,1.00
2019-04-23T05:22:59.448Z,1.00
2019-04-23T05:23:45.858Z,1.00
2019-04-23T05:24:23.464Z,1.00
2019-04-23T05:24:51.427Z,1.00
2019-04-23T05:25:34.013Z,1.00
2019-04-23T05:26:21.083Z,1.00
2019-04-23T05:26:48.212Z,1.00
2019-04-23T05:27:34.546Z,1.00
2019-04-23T05:28:08.045Z,1.00
2019-04-23T05:28:49.195Z,99.90
2019-04-23T05:29:11.198Z,99.90
2019-04-23T05:29:54.318Z,99.90
2019-04-23T05:30:33.161Z,99.90
2019-04-23T05:31:09.818Z,99.90
2019-04-23T05:31:32.508Z,99.90
2019-04-23T05:32:19.362Z,99.90
2019-04-23T05:32:56.439Z,99.90
2019-04-23T05:33:29.785Z,99.90
2019-04-23T05:34:04.556Z,99.90
2019-04-23T05:34:45.147Z,99.90
2019-04-23T05:35:28.643Z,98.10
2019-04-23T05:36:12.618Z,79.00
2019-04-23T05:36:30.734Z,99.90
2019-04-23T05:37:07.108Z,99.90
2019-04-23T05:37:50.358Z,99.90
2019-04-23T05:38:31.477Z,59.80
2019-04-23T05:39:02.459Z,1.00
2019-04-23T05:40:22.077Z,1.00
2019-04-23T05:40:44.972Z,1.00
2019-04-23T05:41:27.039Z,1.00
2019-04-23T05:41:53.611Z,1.00
2019-04-23T05:42:36.335Z,1.00
2019-04-23T05:43:03.387Z,1.00
2019-04-23T05:44:21.608Z,1.00
2019-04-23T05:44:57.138Z,1.00
2019-04-23T05:46:17.947Z,1.00
2019-04-23T05:47:20.354Z,1.00
2019-04-23T05:47:58.635Z,1.00
2019-04-23T05:48:32.215Z,1.00
2019-04-23T05:49:47.172Z,1.00
2019-04-23T05:50:26.056Z,1.00
2019-04-23T05:51:36.320Z,1.00
2019-04-23T05:52:07.458Z,1.00
2019-04-23T05:52:47.893Z,1.00
2019-04-23T05:53:18.545Z,1.00
2019-04-23T05:54:00.483Z,1.00
2019-04-23T05:54:36.802Z,1.00
2019-04-23T05:55:09.129Z,1.00
2019-04-23T05:55:49.365Z,1.00
2019-04-23T05:56:22.632Z,1.00
2019-04-23T05:56:55.071Z,1.00
2019-04-23T05:57:34.864Z,1.00
2019-04-23T05:58:08.628Z,1.00
2019-04-23T05:58:48.944Z,1.00
2019-04-23T05:59:59.068Z,1.00
2019-04-23T06:00:39.554Z,1.00
2019-04-23T06:01:49.277Z,1.00
2019-04-23T06:02:07.598Z,1.00
2019-04-23T06:02:53.734Z,1.00
2019-04-23T06:03:22.339Z,1.00
2019-04-23T06:04:09.332Z,1.00
2019-04-23T06:05:10.389Z,68.90
2019-04-23T06:05:46.554Z,99.90
2019-04-23T06:06:29.735Z,99.90
2019-04-23T06:07:28.910Z,99.90
2019-04-23T06:07:35.881Z,99.90
2019-04-23T06:08:14.693Z,99.90
2019-04-23T06:08:56.441Z,1.00
2019-04-23T06:09:28.813Z,99.90
2019-04-23T06:10:44.290Z,99.90
2019-04-23T06:11:19.264Z,99.90
2019-04-23T06:11:58.208Z,99.90
2019-04-23T06:12:26.984Z,1.00
2019-04-23T06:13:04.934Z,99.90
2019-04-23T06:13:43.057Z,1.00
2019-04-23T06:14:21.256Z,99.90
2019-04-23T06:14:55.613Z,1.00
2019-04-23T06:15:32.406Z,99.90
2019-04-23T06:16:04.768Z,1.00
2019-04-23T06:16:41.185Z,1.00
2019-04-23T06:17:16.395Z,99.90
2019-04-23T06:17:54.220Z,1.00
2019-04-23T06:18:33.278Z,1.00
2019-04-23T06:19:09.732Z,1.00
2019-04-23T06:19:36.704Z,1.00
2019-04-23T06:20:15.133Z,1.00
2019-04-23T06:20:56.163Z,1.00
2019-04-23T06:21:33.939Z,1.00
2019-04-23T06:22:45.592Z,99.90
2019-04-23T06:23:24.725Z,1.00
2019-04-23T06:24:06.271Z,1.00
2019-04-23T06:24:34.683Z,1.00
2019-04-23T06:25:12.631Z,1.00
2019-04-23T06:26:10.099Z,1.00
2019-04-23T06:27:32.476Z,1.00
2019-04-23T06:28:08.135Z,1.00
2019-04-23T06:28:42.782Z,1.00
2019-04-23T06:29:57.109Z,1.00
2019-04-23T06:31:07.863Z,1.00
2019-04-23T06:32:19.030Z,99.90
2019-04-23T06:33:04.301Z,99.90
2019-04-23T06:33:32.383Z,1.00
2019-04-23T06:34:47.243Z,99.90
2019-04-23T06:35:27.063Z,99.90
2019-04-23T06:35:58.952Z,1.00
2019-04-23T06:36:32.692Z,1.00
2019-04-23T06:37:16.950Z,99.90
2019-04-23T06:38:22.015Z,1.00
2019-04-23T06:40:13.872Z,14.20
2019-04-23T06:40:47.450Z,1.00
2019-04-23T06:41:30.976Z,1.00
2019-04-23T06:42:04.228Z,99.90
2019-04-23T06:42:56.337Z,1.00
2019-04-23T06:43:56.682Z,1.00
2019-04-23T06:44:28.922Z,1.00
2019-04-23T06:44:59.650Z,99.90
2019-04-23T06:46:11.862Z,14.30
2019-04-23T06:47:31.116Z,1.00
2019-04-23T06:48:09.042Z,1.00
2019-04-23T06:49:20.133Z,1.00
2019-04-23T06:49:54.604Z,1.00
2019-04-23T06:50:27.131Z,99.90
2019-04-23T06:51:06.014Z,1.00
2019-04-23T06:51:46.697Z,1.00
2019-04-23T06:52:31.788Z,66.30
2019-04-23T06:52:50.576Z,1.00
2019-04-23T06:53:27.306Z,1.00
2019-04-23T06:54:06.823Z,1.00
2019-04-23T06:54:47.770Z,20.50
2019-04-23T06:55:20.378Z,99.90
2019-04-23T06:55:59.908Z,1.00
2019-04-23T06:56:35.099Z,99.90
2019-04-23T06:57:31.811Z,1.00
2019-04-23T06:58:24.062Z,1.00
2019-04-23T06:58:47.404Z,1.00
2019-04-23T06:59:47.128Z,1.00
2019-04-23T07:00:46.603Z,1.00
2019-04-23T07:01:25.605Z,1.00
2019-04-23T07:01:59.282Z,1.00
2019-04-23T07:02:34.275Z,1.00
2019-04-23T07:03:14.705Z,99.90
2019-04-23T07:03:55.667Z,1.00
2019-04-23T07:06:03.758Z,1.00
2019-04-23T07:06:30.003Z,99.90
2019-04-23T07:08:30.656Z,1.00
2019-04-23T07:09:35.461Z,99.90
2019-04-23T07:10:03.589Z,1.00
2019-04-23T07:10:54.396Z,1.00
2019-04-23T07:11:47.890Z,99.90
2019-04-23T07:12:35.126Z,99.90
2019-04-23T07:13:10.589Z,1.00
2019-04-23T07:14:12.020Z,1.00
2019-04-23T07:15:12.907Z,99.90
2019-04-23T07:15:42.923Z,99.90
2019-04-23T07:16:12.883Z,99.90
2019-04-23T07:16:58.521Z,99.90
2019-04-23T07:17:13.357Z,1.00
2019-04-23T07:17:55.521Z,99.90
2019-04-23T07:18:29.324Z,1.00
2019-04-23T07:19:19.910Z,99.90
2019-04-23T07:20:22.557Z,99.90
2019-04-23T07:20:59.954Z,99.90
2019-04-23T07:21:27.975Z,99.90
2019-04-23T07:22:14.716Z,99.90
2019-04-23T07:22:49.889Z,99.90
2019-04-23T07:23:29.969Z,99.90
2019-04-23T07:24:05.388Z,99.90
2019-04-23T07:24:28.719Z,99.90
2019-04-23T07:25:47.053Z,99.90
2019-04-23T07:26:30.481Z,99.90
2019-04-23T07:26:52.842Z,99.90
2019-04-23T07:27:31.762Z,99.90
2019-04-23T07:28:12.894Z,99.90
2019-04-23T07:28:53.155Z,99.90
2019-04-23T07:29:25.695Z,99.90
2019-04-23T07:30:03.578Z,99.90
2019-04-23T07:30:33.430Z,99.90
2019-04-23T07:31:28.077Z,99.90
2019-04-23T07:31:52.158Z,99.90
2019-04-23T07:32:40.798Z,99.90
2019-04-23T07:33:04.049Z,99.90
2019-04-23T07:33:49.538Z,99.90
2019-04-23T07:34:23.293Z,99.90
2019-04-23T07:34:55.309Z,1.00
2019-04-23T07:35:24.608Z,99.90
2019-04-23T07:36:03.133Z,99.90
2019-04-23T07:36:44.462Z,99.90
2019-04-23T07:37:15.612Z,99.90
2019-04-23T07:37:54.549Z,99.90
2019-04-23T07:38:43.326Z,1.00
2019-04-23T07:39:35.583Z,1.00
2019-04-23T07:40:23.085Z,99.90
2019-04-23T07:40:40.610Z,99.90
2019-04-23T07:41:47.942Z,99.90
2019-04-23T07:43:41.814Z,1.00
2019-04-23T07:46:06.512Z,1.00
2019-04-23T07:47:05.351Z,99.90
2019-04-23T07:48:00.238Z,1.00
2019-04-23T07:48:23.855Z,99.90
2019-04-23T07:49:06.739Z,99.90
2019-04-23T07:49:41.462Z,99.90
2019-04-23T07:50:23.158Z,99.90
2019-04-23T07:50:52.028Z,99.90
2019-04-23T07:51:29.863Z,99.90
2019-04-23T07:52:11.049Z,99.90
2019-04-23T07:52:41.087Z,99.90
2019-04-23T07:54:16.049Z,99.90
2019-04-23T07:54:29.022Z,99.90
2019-04-23T07:55:06.760Z,99.90
2019-04-23T07:56:21.446Z,99.90
2019-04-23T07:57:02.276Z,53.20
2019-04-23T07:57:38.166Z,50.60
2019-04-23T07:58:14.261Z,99.90
2019-04-23T07:58:33.594Z,28.50
2019-04-23T07:59:22.727Z,55.10
2019-04-23T07:59:55.658Z,55.10
2019-04-23T08:01:07.041Z,11.00
2019-04-23T08:01:42.257Z,25.70
2019-04-23T08:02:27.328Z,1.00
2019-04-23T08:02:58.246Z,97.50
2019-04-23T08:03:31.535Z,1.00
2019-04-23T08:04:08.533Z,73.60
2019-04-23T08:04:54.104Z,35.30
2019-04-23T08:05:36.077Z,1.00
2019-04-23T08:06:05.900Z,44.30
2019-04-23T08:06:30.101Z,99.90
2019-04-23T08:07:12.790Z,1.00
2019-04-23T08:07:44.089Z,1.00
2019-04-23T08:08:21.359Z,52.80
2019-04-23T08:08:56.494Z,1.00
2019-04-23T08:09:43.066Z,1.00
2019-04-23T08:11:24.480Z,1.00
2019-04-23T08:11:42.682Z,1.00
2019-04-23T08:12:55.823Z,1.00
2019-04-23T08:13:39.888Z,1.00
2019-04-23T08:14:03.578Z,1.00
2019-04-23T08:14:46.921Z,99.90
2019-04-23T08:15:23.186Z,1.00
2019-04-23T08:15:57.429Z,1.00
2019-04-23T08:16:33.630Z,1.00
2019-04-23T08:17:04.391Z,1.00
2019-04-23T08:17:42.706Z,1.00
2019-04-23T08:18:18.625Z,1.00
2019-04-23T08:18:58.965Z,1.00
2019-04-23T08:19:43.974Z,1.00
2019-04-23T08:20:07.365Z,1.00
2019-04-23T08:21:20.869Z,1.00
2019-04-23T08:22:10.004Z,1.00
2019-04-23T08:22:32.346Z,1.00
2019-04-23T08:23:17.801Z,1.00
2019-04-23T08:25:03.278Z,1.00
2019-04-23T08:26:00.475Z,1.00
2019-04-23T08:27:18.145Z,1.00
2019-04-23T08:28:06.168Z,1.00
2019-04-23T08:29:14.104Z,1.00
2019-04-23T08:29:45.857Z,1.00
2019-04-23T08:30:28.904Z,1.00
2019-04-23T08:31:07.859Z,1.00
2019-04-23T08:31:43.668Z,1.00
2019-04-23T08:32:15.021Z,1.00
2019-04-23T08:32:52.187Z,1.00
2019-04-23T08:33:44.705Z,1.00
2019-04-23T08:34:17.185Z,1.00
2019-04-23T08:34:43.292Z,1.00
2019-04-23T08:35:59.310Z,99.90
2019-04-23T08:36:38.944Z,99.90
2019-04-23T08:37:09.037Z,99.90
2019-04-23T08:37:54.424Z,99.90
2019-04-23T08:38:53.965Z,1.00
2019-04-23T08:39:32.303Z,99.90
2019-04-23T08:40:02.599Z,99.90
2019-04-23T08:40:43.933Z,99.90
2019-04-23T08:42:09.589Z,99.90
2019-04-23T08:42:39.687Z,99.90
2019-04-23T08:43:36.765Z,99.90
2019-04-23T08:44:01.138Z,99.90
2019-04-23T08:45:11.977Z,99.90
2019-04-23T08:45:44.422Z,99.90
2019-04-23T08:46:43.405Z,99.90
2019-04-23T08:47:29.755Z,99.90
2019-04-23T08:48:01.197Z,99.90
2019-04-23T08:48:49.649Z,99.90
2019-04-23T08:49:20.089Z,99.90
2019-04-23T08:50:26.328Z,99.90
2019-04-23T08:51:09.718Z,99.90
2019-04-23T08:51:49.562Z,99.90
2019-04-23T08:52:14.828Z,99.90
2019-04-23T08:52:43.163Z,99.90
2019-04-23T08:53:55.448Z,97.70
2019-04-23T08:54:48.083Z,86.30
2019-04-23T08:55:10.167Z,42.50
2019-04-23T08:56:20.696Z,29.10
2019-04-23T08:57:02.763Z,24.30
2019-04-23T08:57:32.436Z,18.20
2019-04-23T08:58:14.151Z,19.60
2019-04-23T08:58:46.236Z,12.70
2019-04-23T08:59:33.168Z,1.00
2019-04-23T08:59:55.651Z,31.60
2019-04-23T09:00:45.483Z,1.00
2019-04-23T09:02:07.733Z,1.00
2019-04-23T09:03:04.672Z,1.00
2019-04-23T09:03:34.532Z,1.00
2019-04-23T09:04:22.014Z,1.00
2019-04-23T09:04:54.915Z,1.00
2019-04-23T09:05:32.435Z,1.00
2019-04-23T09:06:06.148Z,1.00
2019-04-23T09:06:34.928Z,1.00
2019-04-23T09:07:33.632Z,1.00
2019-04-23T09:08:00.036Z,1.00
2019-04-23T09:08:27.766Z,1.00
2019-04-23T09:09:09.845Z,1.00
2019-04-23T09:09:43.869Z,1.00
2019-04-23T09:10:23.339Z,1.00
2019-04-23T09:10:56.876Z,1.00
2019-04-23T09:11:41.691Z,1.00
2019-04-23T09:12:46.003Z,1.00
2019-04-23T09:13:43.785Z,1.00
2019-04-23T09:13:55.751Z,1.00
2019-04-23T09:14:22.862Z,1.00
2019-04-23T09:15:07.804Z,1.00
2019-04-23T09:15:45.061Z,1.00
2019-04-23T09:16:17.911Z,1.00
2019-04-23T09:16:58.369Z,1.00
2019-04-23T09:17:47.620Z,1.00
2019-04-23T09:18:10.433Z,1.00
2019-04-23T09:18:37.233Z,1.00
2019-04-23T09:19:27.089Z,1.00
2019-04-23T09:20:18.960Z,1.00
2019-04-23T09:20:27.585Z,1.00
2019-04-23T09:21:07.366Z,1.00
2019-04-23T09:21:42.870Z,1.00
2019-04-23T09:22:34.743Z,1.00
2019-04-23T09:22:50.110Z,1.00
2019-04-23T09:23:46.963Z,1.00
2019-04-23T09:24:03.947Z,1.00
2019-04-23T09:25:56.202Z,1.00
2019-04-23T09:26:26.093Z,1.00
2019-04-23T09:27:16.204Z,1.00
2019-04-23T09:27:40.135Z,1.00
2019-04-23T09:28:27.641Z,1.00
2019-04-23T09:29:42.418Z,1.00
2019-04-23T09:30:07.127Z,1.00
2019-04-23T09:30:49.376Z,1.00
2019-04-23T09:32:30.201Z,1.00
2019-04-23T09:33:00.749Z,1.00
2019-04-23T09:33:47.139Z,1.00
2019-04-23T09:34:33.886Z,1.00
2019-04-23T09:36:13.619Z,1.00
2019-04-23T09:37:11.991Z,1.00
2019-04-23T09:38:01.811Z,1.00
2019-04-23T09:38:54.096Z,1.00
2019-04-23T09:39:52.866Z,1.00
2019-04-23T09:41:02.523Z,1.00
2019-04-23T09:41:31.156Z,1.00
2019-04-23T09:42:40.108Z,1.00
2019-04-23T09:43:12.200Z,1.00
2019-04-23T09:44:07.934Z,1.00
2019-04-23T09:44:58.536Z,1.00
2019-04-23T09:45:59.818Z,1.00
2019-04-23T09:46:37.773Z,1.00
2019-04-23T09:47:41.432Z,1.00
2019-04-23T09:48:04.655Z,1.00
2019-04-23T09:48:52.465Z,1.00
2019-04-23T09:49:27.552Z,1.00
2019-04-23T09:50:01.257Z,1.00
2019-04-23T09:50:38.380Z,1.00
2019-04-23T09:51:07.948Z,1.00
2019-04-23T09:51:51.366Z,1.00
2019-04-23T09:53:09.646Z,1.00
2019-04-23T09:53:33.937Z,1.00
2019-04-23T09:54:56.194Z,1.00
2019-04-23T09:55:32.446Z,1.00
2019-04-23T09:55:53.727Z,1.00
2019-04-23T09:57:14.027Z,1.00
2019-04-23T09:58:00.488Z,1.00
2019-04-23T09:58:22.440Z,1.00
2019-04-23T09:59:10.914Z,1.00
2019-04-23T10:00:22.999Z,1.00
2019-04-23T10:00:54.480Z,1.00
2019-04-23T10:02:01.235Z,1.00
2019-04-23T10:02:33.991Z,1.00
2019-04-23T10:03:09.143Z,1.00
2019-04-23T10:03:50.503Z,1.00
2019-04-23T10:04:23.218Z,1.00
2019-04-23T10:05:01.224Z,1.00
2019-04-23T10:05:33.636Z,1.00
2019-04-23T10:06:08.198Z,1.00
2019-04-23T10:06:39.188Z,1.00
2019-04-23T10:07:27.056Z,1.00